sensor_id;sensor_type;location;lat;lon;timestamp;P1;durP1;ratioP1;P2;durP2;ratioP2
21539;SDS011;10931;52.164;5.518;2023-11-19T01:02:11;2.63;;;0.60;;
21539;SDS011;10931;52.164;5.518;2023-11-19T01:05:04;1.13;;;0.70;;
21539;SDS011;10931;52.164;5.518;2023-11-19T01:07:50;1.77;;;0.60;;
21539;SDS011;10931;52.164;5.518;2023-11-19T01:10:23;1.23;;;0.50;;
21539;SDS011;10931;52.164;5.518;2023-11-19T01:12:54;3.60;;;0.70;;
21539;SDS011;10931;52.164;5.518;2023-11-19T01:15:33;1.25;;;0.60;;
21539;SDS011;10931;52.164;5.518;2023-11-19T01:18:09;1.63;;;0.68;;
21539;SDS011;10931;52.164;5.518;2023-11-19T01:23:51;0.50;;;0.50;;
21539;SDS011;10931;52.164;5.518;2023-11-19T01:26:35;1.52;;;0.80;;
21539;SDS011;10931;52.164;5.518;2023-11-19T01:29:05;0.85;;;0.57;;
21539;SDS011;10931;52.164;5.518;2023-11-19T01:34:48;1.75;;;0.50;;
21539;SDS011;10931;52.164;5.518;2023-11-19T01:40:29;1.10;;;0.60;;
21539;SDS011;10931;52.164;5.518;2023-11-19T01:43:04;2.28;;;0.60;;
21539;SDS011;10931;52.164;5.518;2023-11-19T01:45:49;1.40;;;0.50;;
21539;SDS011;10931;52.164;5.518;2023-11-19T01:48:31;1.75;;;0.65;;
21539;SDS011;10931;52.164;5.518;2023-11-19T01:54:26;1.45;;;0.63;;
21539;SDS011;10931;52.164;5.518;2023-11-19T02:15:19;2.00;;;0.60;;
21539;SDS011;10931;52.164;5.518;2023-11-19T02:20:37;2.50;;;0.57;;
21539;SDS011;10931;52.164;5.518;2023-11-19T02:23:19;0.98;;;0.50;;
21539;SDS011;10931;52.164;5.518;2023-11-19T03:23:43;1.02;;;0.52;;
21539;SDS011;10931;52.164;5.518;2023-11-19T03:26:18;2.03;;;0.70;;
21539;SDS011;10931;52.164;5.518;2023-11-19T03:28:54;2.30;;;0.80;;
21539;SDS011;10931;52.164;5.518;2023-11-19T03:31:33;5.57;;;0.90;;
21539;SDS011;10931;52.164;5.518;2023-11-19T03:34:18;4.05;;;0.70;;
21539;SDS011;10931;52.164;5.518;2023-11-19T03:39:47;3.22;;;0.80;;
21539;SDS011;10931;52.164;5.518;2023-11-19T03:42:36;2.38;;;0.73;;
21539;SDS011;10931;52.164;5.518;2023-11-19T03:45:35;4.75;;;0.70;;
21539;SDS011;10931;52.164;5.518;2023-11-19T03:48:23;2.08;;;0.65;;
21539;SDS011;10931;52.164;5.518;2023-11-19T03:51:32;5.88;;;1.00;;
21539;SDS011;10931;52.164;5.518;2023-11-19T03:54:09;2.47;;;0.77;;
21539;SDS011;10931;52.164;5.518;2023-11-19T03:56:39;1.88;;;0.57;;
21539;SDS011;10931;52.164;5.518;2023-11-19T03:59:15;2.22;;;0.68;;
21539;SDS011;10931;52.164;5.518;2023-11-19T04:02:01;4.72;;;1.02;;
21539;SDS011;10931;52.164;5.518;2023-11-19T04:04:39;2.13;;;0.80;;
21539;SDS011;10931;52.164;5.518;2023-11-19T04:07:08;3.83;;;0.70;;
21539;SDS011;10931;52.164;5.518;2023-11-19T04:09:38;2.63;;;0.85;;
21539;SDS011;10931;52.164;5.518;2023-11-19T04:12:16;3.78;;;0.70;;
21539;SDS011;10931;52.164;5.518;2023-11-19T04:14:59;3.75;;;0.80;;
21539;SDS011;10931;52.164;5.518;2023-11-19T04:17:34;2.65;;;0.70;;
21539;SDS011;10931;52.164;5.518;2023-11-19T04:20:10;3.53;;;0.70;;
21539;SDS011;10931;52.164;5.518;2023-11-19T04:22:39;3.03;;;0.80;;
21539;SDS011;10931;52.164;5.518;2023-11-19T04:25:22;3.95;;;0.90;;
21539;SDS011;10931;52.164;5.518;2023-11-19T04:28:10;4.65;;;0.70;;
21539;SDS011;10931;52.164;5.518;2023-11-19T04:30:54;4.13;;;0.80;;
21539;SDS011;10931;52.164;5.518;2023-11-19T04:33:34;3.25;;;0.80;;
21539;SDS011;10931;52.164;5.518;2023-11-19T04:36:19;4.15;;;1.00;;
21539;SDS011;10931;52.164;5.518;2023-11-19T04:45:02;1.88;;;0.70;;
21539;SDS011;10931;52.164;5.518;2023-11-19T04:47:46;4.78;;;0.98;;
21539;SDS011;10931;52.164;5.518;2023-11-19T04:50:20;4.22;;;0.90;;
21539;SDS011;10931;52.164;5.518;2023-11-19T04:53:14;1.73;;;0.85;;
21539;SDS011;10931;52.164;5.518;2023-11-19T04:55:45;3.15;;;0.90;;
21539;SDS011;10931;52.164;5.518;2023-11-19T04:58:52;2.92;;;0.60;;
21539;SDS011;10931;52.164;5.518;2023-11-19T05:14:28;3.78;;;0.60;;
21539;SDS011;10931;52.164;5.518;2023-11-19T05:17:13;1.92;;;0.80;;
21539;SDS011;10931;52.164;5.518;2023-11-19T05:20:20;2.97;;;0.95;;
21539;SDS011;10931;52.164;5.518;2023-11-19T05:23:25;1.13;;;0.50;;
21539;SDS011;10931;52.164;5.518;2023-11-19T05:26:20;4.30;;;0.70;;
21539;SDS011;10931;52.164;5.518;2023-11-19T05:37:44;5.07;;;0.68;;
21539;SDS011;10931;52.164;5.518;2023-11-19T05:40:59;7.45;;;1.00;;
21539;SDS011;10931;52.164;5.518;2023-11-19T05:43:45;5.55;;;1.00;;
21539;SDS011;10931;52.164;5.518;2023-11-19T09:52:08;4.10;;;0.77;;
21539;SDS011;10931;52.164;5.518;2023-11-19T09:54:46;3.20;;;0.75;;
21539;SDS011;10931;52.164;5.518;2023-11-19T09:57:33;4.10;;;1.20;;
21539;SDS011;10931;52.164;5.518;2023-11-19T10:25:05;6.35;;;0.93;;
21539;SDS011;10931;52.164;5.518;2023-11-19T10:28:08;5.13;;;0.98;;
21539;SDS011;10931;52.164;5.518;2023-11-19T10:33:52;3.20;;;0.65;;
21539;SDS011;10931;52.164;5.518;2023-11-19T10:36:39;5.90;;;1.05;;
21539;SDS011;10931;52.164;5.518;2023-11-19T11:06:55;4.82;;;1.13;;
21539;SDS011;10931;52.164;5.518;2023-11-19T11:09:33;4.40;;;0.95;;
21539;SDS011;10931;52.164;5.518;2023-11-19T11:15:45;5.03;;;1.27;;
21539;SDS011;10931;52.164;5.518;2023-11-19T11:18:34;4.45;;;0.93;;
21539;SDS011;10931;52.164;5.518;2023-11-19T11:21:32;6.05;;;1.10;;
21539;SDS011;10931;52.164;5.518;2023-11-19T11:37:33;4.00;;;0.80;;
21539;SDS011;10931;52.164;5.518;2023-11-19T11:40:17;4.68;;;1.50;;
21539;SDS011;10931;52.164;5.518;2023-11-19T12:07:17;4.60;;;1.00;;
21539;SDS011;10931;52.164;5.518;2023-11-19T12:10:09;7.85;;;1.38;;
21539;SDS011;10931;52.164;5.518;2023-11-19T12:12:52;5.90;;;1.00;;
21539;SDS011;10931;52.164;5.518;2023-11-19T12:15:23;5.18;;;1.27;;
21539;SDS011;10931;52.164;5.518;2023-11-19T12:18:00;6.50;;;1.52;;
21539;SDS011;10931;52.164;5.518;2023-11-19T12:20:33;5.80;;;0.98;;
21539;SDS011;10931;52.164;5.518;2023-11-19T12:23:07;5.55;;;1.13;;
21539;SDS011;10931;52.164;5.518;2023-11-19T12:25:40;3.65;;;1.38;;
21539;SDS011;10931;52.164;5.518;2023-11-19T12:31:55;4.07;;;1.60;;
21539;SDS011;10931;52.164;5.518;2023-11-19T12:34:48;4.45;;;1.25;;
21539;SDS011;10931;52.164;5.518;2023-11-19T12:47:03;3.88;;;1.02;;
21539;SDS011;10931;52.164;5.518;2023-11-19T12:49:36;6.03;;;1.35;;
21539;SDS011;10931;52.164;5.518;2023-11-19T13:12:19;5.50;;;1.27;;
21539;SDS011;10931;52.164;5.518;2023-11-19T13:42:19;3.63;;;1.05;;
21539;SDS011;10931;52.164;5.518;2023-11-19T14:24:34;5.95;;;1.10;;
21539;SDS011;10931;52.164;5.518;2023-11-19T14:40:59;6.20;;;0.90;;
21539;SDS011;10931;52.164;5.518;2023-11-19T14:53:50;3.22;;;0.60;;
21539;SDS011;10931;52.164;5.518;2023-11-19T14:56:53;3.60;;;1.10;;
21539;SDS011;10931;52.164;5.518;2023-11-19T14:59:18;3.35;;;1.10;;
21539;SDS011;10931;52.164;5.518;2023-11-19T15:01:45;3.65;;;1.05;;
21539;SDS011;10931;52.164;5.518;2023-11-19T15:04:27;3.50;;;0.88;;
21539;SDS011;10931;52.164;5.518;2023-11-19T15:07:18;4.00;;;1.05;;
21539;SDS011;10931;52.164;5.518;2023-11-19T15:16:33;6.60;;;1.20;;
21539;SDS011;10931;52.164;5.518;2023-11-19T15:19:24;4.00;;;1.25;;
21539;SDS011;10931;52.164;5.518;2023-11-19T16:09:27;3.90;;;1.15;;
21539;SDS011;10931;52.164;5.518;2023-11-19T18:12:02;5.13;;;1.20;;
21539;SDS011;10931;52.164;5.518;2023-11-19T18:15:03;4.22;;;1.30;;
21539;SDS011;10931;52.164;5.518;2023-11-19T18:17:58;3.65;;;1.40;;
21539;SDS011;10931;52.164;5.518;2023-11-19T18:20:50;4.70;;;1.52;;
21539;SDS011;10931;52.164;5.518;2023-11-19T18:23:42;3.55;;;1.10;;
21539;SDS011;10931;52.164;5.518;2023-11-19T22:35:59;3.33;;;1.10;;
21539;SDS011;10931;52.164;5.518;2023-11-19T23:59:03;1.67;;;0.90;;
